Terminal Aerodrome Forecast
Issued by NWS Amarillo, TX

Current Version | Previous Version | Text Only | Print | Product List | Glossary Off
Versions: 1 2 3 4 5 6 7 8 9 10 11 12 13 14 15 16 17

402
FTUS44 KAMA 290535
TAFDHT
TAF
KDHT 290535Z 2906/3006 03015G25KT 3SM -SHRA BR SCT005 OVC025
      TEMPO 2906/2910 OVC005
     FM291300 01022G32KT 2SM -RASN BR OVC004
     FM291800 02025G35KT 2SM -SN OVC004=

USA.gov is the U.S. government's official web portal to all federal, state and local government web resources and services.